Time;durP1;ratioP1;P1;durP2;ratioP2;P2;SDS_P1;SDS_P2;PMS_P1;PMS_P2;Temp;Humidity;BMP_temperature;BMP_pressure;BME280_temperature;BME280_humidity;BME280_pressure;Samples;Min_cycle;Max_cycle;Signal;HPM_P1;HPM_P2
2022/12/25 00:00:38;;;;;;;5.53;3.13;;;;;;;;;;6174194;23;20494;-83
2022/12/25 00:03:04;;;;;;;6.90;3.50;;;;;;;;;;6176765;23;20841;-82
2022/12/25 00:05:30;;;;;;;7.83;3.70;;;;;;;;;;6173014;23;20406;-83
2022/12/25 00:07:56;;;;;;;11.47;3.20;;;;;;;;;;6176652;23;20391;-81
2022/12/25 00:10:22;;;;;;;11.50;4.10;;;;;;;;;;6168784;23;20604;-81
2022/12/25 00:12:48;;;;;;;9.07;3.40;;;;;;;;;;6176650;23;20743;-80
2022/12/25 00:15:14;;;;;;;5.47;3.10;;;;;;;;;;6172833;23;20983;-82
2022/12/25 00:17:40;;;;;;;6.33;3.30;;;;;;;;;;6176821;23;20399;-82
2022/12/25 00:20:06;;;;;;;14.13;4.37;;;;;;;;;;6173306;23;20380;-83
2022/12/25 00:22:32;;;;;;;7.40;3.57;;;;;;;;;;6176655;23;20745;-82
2022/12/25 00:24:58;;;;;;;3.93;2.87;;;;;;;;;;6173206;23;20367;-81
2022/12/25 00:27:24;;;;;;;4.07;3.27;;;;;;;;;;6176572;23;20378;-82
2022/12/25 00:29:50;;;;;;;5.00;3.40;;;;;;;;;;6172705;23;20445;-82
2022/12/25 00:32:16;;;;;;;5.90;3.00;;;;;;;;;;6176661;23;20414;-82
2022/12/25 00:34:42;;;;;;;6.43;3.20;;;;;;;;;;6173324;23;20367;-81
2022/12/25 00:37:08;;;;;;;6.03;2.83;;;;;;;;;;6176671;23;20413;-83
2022/12/25 00:39:34;;;;;;;8.53;3.43;;;;;;;;;;6173286;23;20414;-82
2022/12/25 00:42:18;;;;;;;10.20;3.40;;;;;;;;;;6176739;23;20391;-82
2022/12/25 00:44:45;;;;;;;4.53;2.90;;;;;;;;;;6173399;23;20430;-83
2022/12/25 00:47:11;;;;;;;3.20;2.77;;;;;;;;;;6176536;23;20986;-80
2022/12/25 00:49:37;;;;;;;5.33;2.90;;;;;;;;;;6173115;23;20367;-81
2022/12/25 00:52:06;;;;;;;9.83;3.20;;;;;;;;;;6176928;23;20364;-82
2022/12/25 00:54:32;;;;;;;6.53;2.90;;;;;;;;;;6173147;23;20753;-83
2022/12/25 00:56:58;;;;;;;6.77;3.30;;;;;;;;;;6177060;23;20390;-83
2022/12/25 00:59:24;;;;;;;5.70;3.63;;;;;;;;;;6173418;23;20375;-82
2022/12/25 01:01:50;;;;;;;7.93;3.27;;;;;;;;;;6176452;23;20399;-82
2022/12/25 01:04:16;;;;;;;5.53;2.97;;;;;;;;;;6172391;23;20789;-82
2022/12/25 01:06:42;;;;;;;6.90;3.00;;;;;;;;;;6176964;23;20392;-81
2022/12/25 01:11:53;;;;;;;5.30;2.00;;;;;;;;;;6175061;23;20395;-82
2022/12/25 01:14:19;;;;;;;4.17;2.90;;;;;;;;;;6173044;23;20379;-83
2022/12/25 01:16:45;;;;;;;2.63;2.60;;;;;;;;;;6177474;23;20366;-83
2022/12/25 01:19:11;;;;;;;7.47;2.77;;;;;;;;;;6174095;23;21348;-83
2022/12/25 01:21:37;;;;;;;3.17;2.90;;;;;;;;;;6178001;23;20339;-83
2022/12/25 01:24:03;;;;;;;5.80;2.67;;;;;;;;;;6174437;23;20418;-82
2022/12/25 01:26:29;;;;;;;6.00;2.77;;;;;;;;;;6190024;23;20348;-81
2022/12/25 01:28:55;;;;;;;3.77;2.67;;;;;;;;;;6183843;23;20394;-81
2022/12/25 01:31:23;;;;;;;2.57;2.37;;;;;;;;;;6190823;23;20430;-81
2022/12/25 01:33:52;;;;;;;2.70;2.50;;;;;;;;;;6184393;23;20379;-81
2022/12/25 01:36:20;;;;;;;3.90;2.60;;;;;;;;;;6182314;23;20363;-82
2022/12/25 01:38:46;;;;;;;3.10;2.47;;;;;;;;;;6180868;23;20383;-82
2022/12/25 01:41:13;;;;;;;2.07;2.07;;;;;;;;;;6176046;23;20402;-82
2022/12/25 01:43:58;;;;;;;3.57;2.17;;;;;;;;;;6179599;23;20461;-82
2022/12/25 01:46:24;;;;;;;4.40;2.77;;;;;;;;;;6179339;23;20370;-82
2022/12/25 01:48:51;;;;;;;2.17;2.00;;;;;;;;;;6178161;23;20383;-82
2022/12/25 01:51:32;;;;;;;4.40;2.70;;;;;;;;;;6179619;23;20421;-83
2022/12/25 01:54:01;;;;;;;2.73;2.20;;;;;;;;;;6178150;23;20495;-82
2022/12/25 01:56:28;;;;;;;2.63;2.53;;;;;;;;;;6179749;23;20371;-82
2022/12/25 01:58:55;;;;;;;2.80;2.60;;;;;;;;;;6175304;23;20383;-81
2022/12/25 02:01:24;;;;;;;4.37;2.03;;;;;;;;;;6178375;23;20657;-82
2022/12/25 02:03:56;;;;;;;3.47;2.60;;;;;;;;;;6176337;23;20919;-82
2022/12/25 02:06:22;;;;;;;2.67;2.50;;;;;;;;;;6178327;23;20359;-83
2022/12/25 02:08:49;;;;;;;4.67;2.77;;;;;;;;;;6177820;23;20371;-81
2022/12/25 02:11:55;;;;;;;2.47;2.37;;;;;;;;;;6171839;23;20372;-82
2022/12/25 02:14:01;;;;;;;2.80;2.10;;;;;;;;;;6175021;23;20469;-82
2022/12/25 02:16:29;;;;;;;3.17;2.87;;;;;;;;;;6178234;23;20420;-81
2022/12/25 02:18:58;;;;;;;3.40;2.30;;;;;;;;;;6173612;23;20403;-82
2022/12/25 02:21:35;;;;;;;8.50;2.73;;;;;;;;;;6177975;23;20788;-82
2022/12/25 02:24:01;;;;;;;3.90;2.63;;;;;;;;;;6174248;23;21059;-83
2022/12/25 02:26:27;;;;;;;4.17;2.53;;;;;;;;;;6178741;23;20362;-83
2022/12/25 02:28:56;;;;;;;2.77;2.57;;;;;;;;;;6174357;23;20378;-82
2022/12/25 02:31:28;;;;;;;3.93;2.63;;;;;;;;;;6178227;23;20471;-81
2022/12/25 02:34:01;;;;;;;5.10;2.90;;;;;;;;;;6173921;23;20742;-82
2022/12/25 02:36:30;;;;;;;3.33;3.13;;;;;;;;;;6178052;23;20426;-82
2022/12/25 02:41:45;;;;;;;3.07;2.23;;;;;;;;;;6177993;23;20370;-82
2022/12/25 03:06:45;;;;;;;2.40;2.20;;;;;;;;;;6178257;23;20383;-81
2022/12/25 03:12:09;;;;;;;2.57;2.37;;;;;;;;;;6177904;23;20844;-82
2022/12/25 03:17:20;;;;;;;3.00;1.90;;;;;;;;;;6177461;23;20489;-82
2022/12/25 03:28:03;;;;;;;2.10;2.10;;;;;;;;;;6179879;23;20383;-82
2022/12/25 03:36:54;;;;;;;1.93;1.83;;;;;;;;;;6116165;23;21048;-83
2022/12/25 03:42:46;;;;;;;3.67;2.43;;;;;;;;;;6184872;23;20359;-82
2022/12/25 04:37:43;;;;;;;3.23;2.40;;;;;;;;;;6182363;23;20424;-84
2022/12/25 04:40:09;;;;;;;6.03;2.63;;;;;;;;;;6177402;23;20379;-86
2022/12/25 04:42:35;;;;;;;2.80;2.23;;;;;;;;;;6187409;23;20379;-84
2022/12/25 04:45:01;;;;;;;5.50;3.70;;;;;;;;;;6180897;23;20435;-84
2022/12/25 04:47:27;;;;;;;4.03;2.70;;;;;;;;;;6178436;23;20799;-84
2022/12/25 04:49:53;;;;;;;2.87;2.20;;;;;;;;;;6177039;23;20706;-84
2022/12/25 04:52:19;;;;;;;4.80;2.67;;;;;;;;;;6183056;23;20841;-84
2022/12/25 04:54:45;;;;;;;2.13;2.00;;;;;;;;;;6176989;23;20380;-85
2022/12/25 04:57:11;;;;;;;4.20;2.40;;;;;;;;;;6182099;23;20390;-86
2022/12/25 04:59:37;;;;;;;2.73;2.03;;;;;;;;;;6177307;23;20386;-84
2022/12/25 05:02:03;;;;;;;4.40;2.60;;;;;;;;;;6184231;23;20411;-84
2022/12/25 05:04:29;;;;;;;2.00;1.90;;;;;;;;;;6176103;23;20421;-85
2022/12/25 05:06:55;;;;;;;3.53;2.60;;;;;;;;;;6180562;23;20363;-84
2022/12/25 05:09:21;;;;;;;4.00;3.80;;;;;;;;;;6171509;23;20367;-86
2022/12/25 05:11:47;;;;;;;3.10;2.40;;;;;;;;;;6178691;23;20360;-84
2022/12/25 05:14:13;;;;;;;2.20;2.00;;;;;;;;;;6174578;23;20419;-84
2022/12/25 05:16:39;;;;;;;4.37;2.47;;;;;;;;;;6178276;23;20379;-82
2022/12/25 05:19:05;;;;;;;3.60;2.10;;;;;;;;;;6179088;23;20466;-83
2022/12/25 05:21:31;;;;;;;3.23;2.40;;;;;;;;;;6180221;23;20390;-83
2022/12/25 05:23:57;;;;;;;6.27;3.50;;;;;;;;;;6192618;23;20435;-83
2022/12/25 05:26:24;;;;;;;6.40;2.50;;;;;;;;;;6197394;23;20649;-84
2022/12/25 05:28:50;;;;;;;2.77;2.57;;;;;;;;;;6191336;23;20395;-84
2022/12/25 05:31:17;;;;;;;2.03;1.90;;;;;;;;;;6187093;23;20832;-86
2022/12/25 05:33:43;;;;;;;1.83;1.73;;;;;;;;;;6185387;23;20384;-85
2022/12/25 05:36:10;;;;;;;2.63;1.67;;;;;;;;;;6181409;23;20379;-84
2022/12/25 05:38:36;;;;;;;4.27;2.57;;;;;;;;;;6186554;23;20375;-85
2022/12/25 05:41:02;;;;;;;2.23;2.13;;;;;;;;;;6181832;23;20376;-86
2022/12/25 05:43:28;;;;;;;3.13;1.43;;;;;;;;;;6183307;23;20446;-85
2022/12/25 05:45:54;;;;;;;2.10;1.90;;;;;;;;;;6183312;23;20809;-85
2022/12/25 05:48:20;;;;;;;2.20;2.00;;;;;;;;;;6186035;23;20438;-85
2022/12/25 05:50:46;;;;;;;5.40;2.47;;;;;;;;;;6184495;23;20435;-83
2022/12/25 05:53:13;;;;;;;3.03;2.00;;;;;;;;;;6195266;23;20414;-85
2022/12/25 05:55:42;;;;;;;3.60;1.67;;;;;;;;;;6178233;23;20455;-83
2022/12/25 05:58:09;;;;;;;4.00;2.07;;;;;;;;;;6177372;23;20885;-84
2022/12/25 06:00:35;;;;;;;2.73;1.70;;;;;;;;;;6173230;23;20411;-83
2022/12/25 06:03:01;;;;;;;4.60;2.27;;;;;;;;;;6188331;23;20456;-85
2022/12/25 06:05:27;;;;;;;2.73;1.63;;;;;;;;;;6182860;23;20431;-85
2022/12/25 06:07:53;;;;;;;2.87;1.70;;;;;;;;;;6177020;23;20930;-84
2022/12/25 06:10:19;;;;;;;2.37;1.97;;;;;;;;;;6165308;23;20454;-85
2022/12/25 06:12:45;;;;;;;2.80;1.90;;;;;;;;;;6176589;23;20782;-85
2022/12/25 06:15:11;;;;;;;2.03;2.03;;;;;;;;;;6175232;23;20619;-84
2022/12/25 06:17:37;;;;;;;2.30;2.10;;;;;;;;;;6178282;23;20379;-84
2022/12/25 06:20:06;;;;;;;1.90;1.80;;;;;;;;;;6181074;23;20514;-86
2022/12/25 06:22:33;;;;;;;5.53;2.47;;;;;;;;;;6185804;23;20395;-85
2022/12/25 06:24:59;;;;;;;8.83;1.93;;;;;;;;;;6182691;23;20411;-85
2022/12/25 06:27:28;;;;;;;2.20;2.03;;;;;;;;;;6177773;23;20395;-85
2022/12/25 06:29:56;;;;;;;2.37;2.20;;;;;;;;;;6174191;23;20371;-83
2022/12/25 06:32:22;;;;;;;2.33;2.17;;;;;;;;;;6177933;23;20999;-84
2022/12/25 06:34:48;;;;;;;3.33;1.80;;;;;;;;;;6174308;23;20375;-85
2022/12/25 06:37:14;;;;;;;2.47;1.87;;;;;;;;;;6176026;23;20391;-83
2022/12/25 06:39:40;;;;;;;4.13;2.30;;;;;;;;;;6173935;23;20383;-83
2022/12/25 06:42:06;;;;;;;4.43;2.40;;;;;;;;;;6178480;23;20367;-83
2022/12/25 06:44:32;;;;;;;3.47;1.73;;;;;;;;;;6174352;23;20423;-84
2022/12/25 06:46:58;;;;;;;2.07;1.97;;;;;;;;;;6178327;23;20364;-83
2022/12/25 06:49:24;;;;;;;3.70;1.77;;;;;;;;;;6173565;23;20379;-83
2022/12/25 06:51:50;;;;;;;4.37;2.00;;;;;;;;;;6173371;23;20410;-84
2022/12/25 06:54:16;;;;;;;4.17;2.30;;;;;;;;;;6176664;23;20415;-83
2022/12/25 06:56:42;;;;;;;2.50;2.30;;;;;;;;;;6171025;23;20400;-84
2022/12/25 06:59:09;;;;;;;1.87;1.77;;;;;;;;;;6176996;23;20381;-85
2022/12/25 07:01:37;;;;;;;3.17;2.67;;;;;;;;;;6173328;23;20907;-83
2022/12/25 07:04:10;;;;;;;1.80;1.70;;;;;;;;;;6179127;23;20449;-88
2022/12/25 07:06:36;;;;;;;2.20;1.83;;;;;;;;;;6180377;23;20371;-86
2022/12/25 07:09:05;;;;;;;3.17;1.83;;;;;;;;;;6185448;23;20409;-85
2022/12/25 07:11:31;;;;;;;3.27;1.70;;;;;;;;;;6178426;23;20755;-85
2022/12/25 07:13:57;;;;;;;8.57;1.87;;;;;;;;;;6185127;23;20375;-84
2022/12/25 07:16:23;;;;;;;2.57;1.70;;;;;;;;;;6190640;23;20379;-84
2022/12/25 07:18:49;;;;;;;2.17;1.43;;;;;;;;;;6185290;23;20386;-87
2022/12/25 07:21:16;;;;;;;3.27;1.40;;;;;;;;;;6177467;23;20375;-85
2022/12/25 07:23:42;;;;;;;2.10;1.47;;;;;;;;;;6185603;23;20418;-85
2022/12/25 07:26:09;;;;;;;4.57;1.23;;;;;;;;;;6179766;23;20533;-85
2022/12/25 07:28:35;;;;;;;1.10;1.10;;;;;;;;;;6185297;23;20368;-86
2022/12/25 07:31:03;;;;;;;2.37;1.43;;;;;;;;;;6180972;23;20414;-85
2022/12/25 07:33:29;;;;;;;3.00;2.80;;;;;;;;;;6181270;23;20379;-86
2022/12/25 07:35:55;;;;;;;1.90;1.30;;;;;;;;;;6177025;23;20406;-86
2022/12/25 07:38:21;;;;;;;1.83;1.83;;;;;;;;;;6181138;23;20773;-85
2022/12/25 07:40:47;;;;;;;5.17;1.60;;;;;;;;;;6177598;23;20612;-86
2022/12/25 07:43:13;;;;;;;4.10;1.80;;;;;;;;;;6180494;23;20521;-85
2022/12/25 07:45:39;;;;;;;4.17;2.20;;;;;;;;;;6175961;23;20395;-85
2022/12/25 07:48:05;;;;;;;3.33;1.93;;;;;;;;;;6180368;23;20467;-87
2022/12/25 07:50:31;;;;;;;4.30;1.50;;;;;;;;;;6174933;23;20371;-85
2022/12/25 07:52:57;;;;;;;5.03;1.70;;;;;;;;;;6176938;23;20698;-85
2022/12/25 07:55:23;;;;;;;2.40;1.70;;;;;;;;;;6176193;23;20442;-84
2022/12/25 07:57:49;;;;;;;1.87;1.43;;;;;;;;;;6177494;23;20383;-85
2022/12/25 08:00:16;;;;;;;2.37;2.07;;;;;;;;;;6173960;23;20623;-85
2022/12/25 08:02:42;;;;;;;2.33;1.50;;;;;;;;;;6177164;23;20712;-86
2022/12/25 08:05:12;;;;;;;2.40;1.73;;;;;;;;;;6170414;23;20860;-85
2022/12/25 08:07:38;;;;;;;2.13;1.87;;;;;;;;;;6180396;23;20383;-85
2022/12/25 08:10:05;;;;;;;6.50;1.83;;;;;;;;;;6174981;23;20388;-85
2022/12/25 08:12:31;;;;;;;2.90;2.57;;;;;;;;;;6191402;23;20410;-86
2022/12/25 08:14:57;;;;;;;6.07;1.80;;;;;;;;;;6178062;23;20379;-86
2022/12/25 08:17:23;;;;;;;2.50;1.73;;;;;;;;;;6177788;23;20873;-85
2022/12/25 08:19:49;;;;;;;2.73;1.70;;;;;;;;;;6173693;23;20681;-84
2022/12/25 08:22:15;;;;;;;2.47;2.27;;;;;;;;;;6180465;23;20375;-86
2022/12/25 08:24:41;;;;;;;2.30;1.90;;;;;;;;;;6179456;23;20415;-84
2022/12/25 08:27:07;;;;;;;1.93;1.83;;;;;;;;;;6184834;23;20383;-85
2022/12/25 08:29:33;;;;;;;2.07;1.97;;;;;;;;;;6174837;23;20734;-85
2022/12/25 08:31:59;;;;;;;5.37;2.37;;;;;;;;;;6176769;23;20387;-84
2022/12/25 08:34:25;;;;;;;2.77;2.20;;;;;;;;;;6174885;23;20384;-85
2022/12/25 08:36:51;;;;;;;1.80;1.80;;;;;;;;;;6178190;23;20352;-84
2022/12/25 08:39:17;;;;;;;3.93;2.63;;;;;;;;;;6174446;23;20387;-85
2022/12/25 08:41:43;;;;;;;3.63;2.33;;;;;;;;;;6177506;23;20355;-85
2022/12/25 08:44:11;;;;;;;3.10;2.13;;;;;;;;;;6172222;23;20430;-84
2022/12/25 08:46:38;;;;;;;2.07;1.90;;;;;;;;;;6184552;23;20444;-86
2022/12/25 08:49:04;;;;;;;2.17;2.00;;;;;;;;;;6177614;23;20383;-85
2022/12/25 08:51:31;;;;;;;2.20;2.10;;;;;;;;;;6174438;23;20375;-83
2022/12/25 08:53:58;;;;;;;2.57;2.40;;;;;;;;;;6195503;23;20892;-87
2022/12/25 08:56:24;;;;;;;2.00;1.97;;;;;;;;;;6175485;23;20486;-85
2022/12/25 08:58:50;;;;;;;3.40;2.17;;;;;;;;;;6191492;23;20371;-86
2022/12/25 09:01:19;;;;;;;2.63;2.43;;;;;;;;;;6206194;23;20535;-86
2022/12/25 09:03:45;;;;;;;2.47;2.37;;;;;;;;;;6231447;23;20438;-86
2022/12/25 09:06:13;;;;;;;2.33;1.93;;;;;;;;;;6184869;23;20383;-84
2022/12/25 09:08:39;;;;;;;6.27;3.03;;;;;;;;;;6181093;23;20379;-84
2022/12/25 09:11:07;;;;;;;2.20;2.00;;;;;;;;;;6176647;23;20375;-84
2022/12/25 09:13:33;;;;;;;12.03;2.80;;;;;;;;;;6190648;23;20382;-84
2022/12/25 09:15:59;;;;;;;3.33;2.83;;;;;;;;;;6186080;23;20375;-86
2022/12/25 09:18:26;;;;;;;4.33;2.33;;;;;;;;;;6203308;23;20410;-84
2022/12/25 09:21:02;;;;;;;5.70;2.57;;;;;;;;;;6171167;23;20379;-83
2022/12/25 09:23:28;;;;;;;4.37;2.20;;;;;;;;;;6197386;23;20510;-83
2022/12/25 09:25:54;;;;;;;2.73;2.43;;;;;;;;;;6170645;23;20380;-84
2022/12/25 09:28:21;;;;;;;3.37;3.07;;;;;;;;;;6199092;23;20975;-84
2022/12/25 09:30:50;;;;;;;6.80;2.13;;;;;;;;;;6173031;23;20761;-83
2022/12/25 09:33:16;;;;;;;2.20;2.20;;;;;;;;;;6196223;23;20778;-86
2022/12/25 09:35:53;;;;;;;2.70;2.50;;;;;;;;;;6175158;23;20918;-85
2022/12/25 09:38:18;;;;;;;4.27;2.07;;;;;;;;;;6181056;23;20855;-84
2022/12/25 09:40:47;;;;;;;2.40;2.20;;;;;;;;;;6173494;23;20382;-83
2022/12/25 09:43:16;;;;;;;3.23;2.50;;;;;;;;;;6172854;23;20923;-84
2022/12/25 09:45:42;;;;;;;2.70;2.50;;;;;;;;;;6178386;23;20372;-84
2022/12/25 09:48:13;;;;;;;4.57;2.80;;;;;;;;;;6173819;23;20427;-84
2022/12/25 09:50:42;;;;;;;4.43;2.90;;;;;;;;;;6201966;23;20387;-84
2022/12/25 09:53:27;;;;;;;3.97;2.80;;;;;;;;;;6177474;23;20437;-82
2022/12/25 09:55:56;;;;;;;3.90;3.60;;;;;;;;;;6179420;23;20383;-83
2022/12/25 09:58:24;;;;;;;3.47;3.17;;;;;;;;;;6174704;23;20871;-83
2022/12/25 10:00:58;;;;;;;4.07;3.63;;;;;;;;;;6177440;23;20402;-80
2022/12/25 10:03:32;;;;;;;3.70;3.30;;;;;;;;;;6171613;23;20414;-80
2022/12/25 10:06:01;;;;;;;3.63;3.30;;;;;;;;;;6177475;23;20371;-82
2022/12/25 10:08:39;;;;;;;6.43;3.90;;;;;;;;;;6169383;23;20417;-81
2022/12/25 10:11:24;;;;;;;3.67;3.47;;;;;;;;;;6167738;23;20449;-83
2022/12/25 10:13:59;;;;;;;5.43;4.33;;;;;;;;;;6170819;23;20375;-82
2022/12/25 10:16:31;;;;;;;4.27;3.90;;;;;;;;;;6174682;23;20893;-81
2022/12/25 10:19:08;;;;;;;4.20;3.90;;;;;;;;;;6172374;23;20713;-81
2022/12/25 10:21:35;;;;;;;6.57;4.00;;;;;;;;;;6174691;23;20379;-80
2022/12/25 10:24:01;;;;;;;5.17;4.40;;;;;;;;;;6173173;23;20415;-81
2022/12/25 10:26:30;;;;;;;3.80;3.60;;;;;;;;;;6178347;23;20515;-83
2022/12/25 10:29:05;;;;;;;3.40;3.20;;;;;;;;;;6181529;23;20696;-86
2022/12/25 10:31:36;;;;;;;4.47;3.40;;;;;;;;;;6192471;23;20401;-86
2022/12/25 10:34:04;;;;;;;3.97;3.60;;;;;;;;;;6176674;23;20391;-88
2022/12/25 10:36:32;;;;;;;3.43;3.20;;;;;;;;;;6177512;23;20401;-82
2022/12/25 10:38:58;;;;;;;2.70;2.63;;;;;;;;;;6173139;23;20380;-83
2022/12/25 10:41:42;;;;;;;2.30;2.30;;;;;;;;;;6176505;23;20387;-85
2022/12/25 10:44:26;;;;;;;2.40;2.40;;;;;;;;;;6173319;23;20411;-85
2022/12/25 10:47:02;;;;;;;5.00;2.87;;;;;;;;;;6173164;23;20464;-84
2022/12/25 10:49:33;;;;;;;3.30;3.00;;;;;;;;;;6175358;23;20494;-83
2022/12/25 10:52:00;;;;;;;2.73;2.53;;;;;;;;;;6175349;23;20367;-83
2022/12/25 10:54:26;;;;;;;2.73;2.73;;;;;;;;;;6174946;23;20427;-83
2022/12/25 10:57:03;;;;;;;2.67;2.47;;;;;;;;;;6174059;23;20391;-83
2022/12/25 10:59:33;;;;;;;2.60;2.50;;;;;;;;;;6177377;23;20728;-84
2022/12/25 11:02:18;;;;;;;3.00;2.73;;;;;;;;;;6173679;23;20422;-84
2022/12/25 11:04:44;;;;;;;2.43;2.33;;;;;;;;;;6166622;23;20746;-83
2022/12/25 11:07:15;;;;;;;1.93;1.93;;;;;;;;;;6175544;23;20340;-83
2022/12/25 11:09:48;;;;;;;2.93;2.73;;;;;;;;;;6173415;23;20414;-85
2022/12/25 11:12:18;;;;;;;3.13;2.33;;;;;;;;;;6188347;23;20340;-83
2022/12/25 11:15:05;;;;;;;3.33;3.20;;;;;;;;;;6173866;23;20405;-83
2022/12/25 11:17:31;;;;;;;2.60;2.60;;;;;;;;;;6176157;23;20388;-83
2022/12/25 11:19:58;;;;;;;2.77;2.67;;;;;;;;;;6171769;23;20444;-81
2022/12/25 11:22:25;;;;;;;2.63;2.53;;;;;;;;;;6175005;23;20719;-82
2022/12/25 11:24:51;;;;;;;3.03;2.90;;;;;;;;;;6172998;23;20761;-82
2022/12/25 11:27:19;;;;;;;2.53;2.43;;;;;;;;;;6175314;23;20430;-81
2022/12/25 11:29:54;;;;;;;2.90;2.77;;;;;;;;;;6173220;23;20406;-81
2022/12/25 11:32:29;;;;;;;2.97;2.97;;;;;;;;;;6177074;23;20911;-82
2022/12/25 11:34:56;;;;;;;6.47;3.93;;;;;;;;;;6173043;23;20467;-81
2022/12/25 11:37:41;;;;;;;3.50;3.40;;;;;;;;;;6177403;23;20702;-81
2022/12/25 11:40:13;;;;;;;4.17;3.77;;;;;;;;;;6172663;23;20451;-82
2022/12/25 11:42:41;;;;;;;3.90;3.70;;;;;;;;;;6175731;23;20780;-83
2022/12/25 11:45:12;;;;;;;6.70;5.50;;;;;;;;;;6172961;23;20427;-83
2022/12/25 11:47:58;;;;;;;4.93;4.00;;;;;;;;;;6175811;23;20368;-81
2022/12/25 11:50:33;;;;;;;4.87;4.40;;;;;;;;;;6173469;23;20833;-84
2022/12/25 11:53:01;;;;;;;4.17;3.87;;;;;;;;;;6178527;23;20609;-85
2022/12/25 11:55:37;;;;;;;9.60;7.27;;;;;;;;;;6175183;23;20745;-84
2022/12/25 11:58:26;;;;;;;6.90;6.23;;;;;;;;;;6176613;23;20469;-85
2022/12/25 12:00:53;;;;;;;7.90;6.37;;;;;;;;;;6105265;23;20465;-86
2022/12/25 12:03:21;;;;;;;9.30;7.37;;;;;;;;;;6176274;23;20423;-84
2022/12/25 12:05:51;;;;;;;9.27;8.40;;;;;;;;;;6174251;23;20778;-84
2022/12/25 12:08:17;;;;;;;6.33;5.60;;;;;;;;;;6178208;23;20363;-84
2022/12/25 12:10:53;;;;;;;5.27;4.87;;;;;;;;;;6172976;23;20700;-85
2022/12/25 12:13:29;;;;;;;5.03;4.73;;;;;;;;;;6173924;23;20452;-86
2022/12/25 12:15:57;;;;;;;3.83;3.60;;;;;;;;;;6178780;23;20355;-82
2022/12/25 12:18:23;;;;;;;4.10;3.80;;;;;;;;;;6175691;23;20372;-84
2022/12/25 12:21:04;;;;;;;2.63;2.50;;;;;;;;;;6175442;23;20466;-84
2022/12/25 12:23:32;;;;;;;2.93;2.83;;;;;;;;;;6170738;23;20423;-83
2022/12/25 12:25:58;;;;;;;3.83;3.60;;;;;;;;;;6171094;23;20820;-81
2022/12/25 12:28:29;;;;;;;4.50;4.20;;;;;;;;;;6176114;23;20393;-83
2022/12/25 12:31:05;;;;;;;4.67;4.37;;;;;;;;;;6175381;23;20376;-81
2022/12/25 12:33:37;;;;;;;3.60;3.40;;;;;;;;;;6175807;23;20397;-82
2022/12/25 12:36:03;;;;;;;3.30;3.10;;;;;;;;;;6182814;23;20399;-80
2022/12/25 12:38:30;;;;;;;3.80;3.50;;;;;;;;;;6187133;23;20425;-81
2022/12/25 12:41:05;;;;;;;4.40;4.10;;;;;;;;;;6178807;23;20376;-82
2022/12/25 12:43:31;;;;;;;4.63;3.77;;;;;;;;;;6178813;23;20480;-82
2022/12/25 12:46:02;;;;;;;5.30;4.90;;;;;;;;;;6179986;23;20375;-82
2022/12/25 12:48:29;;;;;;;4.73;4.40;;;;;;;;;;6183948;23;20419;-80
2022/12/25 12:51:06;;;;;;;4.40;4.00;;;;;;;;;;6174203;23;20414;-82
2022/12/25 12:53:32;;;;;;;4.00;3.70;;;;;;;;;;6177170;23;20423;-82
2022/12/25 12:56:12;;;;;;;5.03;4.50;;;;;;;;;;6173068;23;20376;-81
2022/12/25 12:58:43;;;;;;;6.43;4.90;;;;;;;;;;6174419;23;20478;-85
2022/12/25 13:01:12;;;;;;;5.87;5.37;;;;;;;;;;6173529;23;20423;-83
2022/12/25 13:03:57;;;;;;;5.73;5.30;;;;;;;;;;6177578;23;20411;-82
2022/12/25 13:06:46;;;;;;;5.00;4.70;;;;;;;;;;6171106;23;21117;-83
2022/12/25 13:09:38;;;;;;;5.30;4.80;;;;;;;;;;6120526;23;20416;-82
2022/12/25 13:12:07;;;;;;;7.83;5.43;;;;;;;;;;6124637;23;20383;-82
2022/12/25 13:14:34;;;;;;;6.57;6.07;;;;;;;;;;6173254;23;20395;-82
2022/12/25 13:17:00;;;;;;;6.20;5.60;;;;;;;;;;6176999;23;20399;-82
2022/12/25 13:19:27;;;;;;;7.03;6.33;;;;;;;;;;6173184;23;21106;-83
2022/12/25 13:21:53;;;;;;;6.30;5.70;;;;;;;;;;6175193;23;20383;-83
2022/12/25 13:24:21;;;;;;;6.53;6.23;;;;;;;;;;6172473;23;20750;-82
2022/12/25 13:26:47;;;;;;;6.07;5.67;;;;;;;;;;6174535;23;20433;-80
2022/12/25 13:29:29;;;;;;;6.23;5.63;;;;;;;;;;6172361;23;20384;-82
2022/12/25 13:32:06;;;;;;;8.33;7.13;;;;;;;;;;6181474;23;20457;-86
2022/12/25 13:34:36;;;;;;;5.53;5.03;;;;;;;;;;6179520;23;20746;-83
2022/12/25 13:37:10;;;;;;;5.40;4.90;;;;;;;;;;6179295;23;20864;-84
2022/12/25 13:39:42;;;;;;;4.60;4.40;;;;;;;;;;6176902;23;20395;-84
2022/12/25 13:42:08;;;;;;;5.67;5.27;;;;;;;;;;6178151;23;20430;-85
2022/12/25 13:44:39;;;;;;;5.50;5.10;;;;;;;;;;6175079;23;20489;-83
2022/12/25 13:50:19;;;;;;;8.20;7.40;;;;;;;;;;6191656;23;20457;-76
2022/12/25 13:52:45;;;;;;;8.17;6.00;;;;;;;;;;6153239;23;20486;-76
2022/12/25 13:55:12;;;;;;;9.17;6.20;;;;;;;;;;6149352;23;20494;-76
2022/12/25 13:57:45;;;;;;;5.43;4.93;;;;;;;;;;6148988;23;20379;-75
2022/12/25 14:00:20;;;;;;;4.83;4.50;;;;;;;;;;6174381;23;20466;-76
2022/12/25 14:02:46;;;;;;;5.50;5.10;;;;;;;;;;6179426;23;20374;-78
2022/12/25 14:05:29;;;;;;;5.70;5.30;;;;;;;;;;6174302;23;20887;-76
2022/12/25 14:07:56;;;;;;;6.50;6.10;;;;;;;;;;6152711;23;20707;-76
2022/12/25 14:10:24;;;;;;;8.27;7.40;;;;;;;;;;6174647;23;20378;-76
2022/12/25 14:12:50;;;;;;;6.60;6.00;;;;;;;;;;6178683;23;20391;-75
2022/12/25 14:15:21;;;;;;;7.57;6.77;;;;;;;;;;6174342;23;20748;-78
2022/12/25 14:17:47;;;;;;;6.13;5.73;;;;;;;;;;6179243;23;20406;-77
2022/12/25 14:20:24;;;;;;;4.93;4.47;;;;;;;;;;6175017;23;20374;-75
2022/12/25 14:22:52;;;;;;;6.30;5.83;;;;;;;;;;6178807;23;20413;-75
2022/12/25 14:25:18;;;;;;;11.43;5.70;;;;;;;;;;6174431;23;20452;-75
2022/12/25 14:27:48;;;;;;;7.47;5.70;;;;;;;;;;6179006;23;20359;-76
2022/12/25 14:30:14;;;;;;;4.87;4.57;;;;;;;;;;6176134;23;20470;-75
2022/12/25 14:32:43;;;;;;;7.33;6.30;;;;;;;;;;6147700;23;20367;-77
2022/12/25 14:35:10;;;;;;;6.30;5.97;;;;;;;;;;6176034;23;20382;-75
2022/12/25 14:37:37;;;;;;;6.23;5.77;;;;;;;;;;6173383;23;20364;-75
2022/12/25 14:40:05;;;;;;;6.40;5.77;;;;;;;;;;6177045;23;20352;-76
2022/12/25 14:42:33;;;;;;;6.97;5.77;;;;;;;;;;6173541;23;20387;-75
2022/12/25 14:45:24;;;;;;;6.50;6.10;;;;;;;;;;6149085;23;20588;-77
2022/12/25 14:47:54;;;;;;;5.93;5.63;;;;;;;;;;6145698;23;20912;-75
2022/12/25 14:50:25;;;;;;;6.23;5.80;;;;;;;;;;6174858;23;20468;-77
2022/12/25 14:52:51;;;;;;;7.07;6.50;;;;;;;;;;6171355;23;20913;-76
2022/12/25 14:55:29;;;;;;;7.57;6.87;;;;;;;;;;6166568;23;20597;-76
2022/12/25 14:57:57;;;;;;;9.40;6.30;;;;;;;;;;6171719;23;20394;-77
2022/12/25 15:00:30;;;;;;;7.33;6.73;;;;;;;;;;6175084;23;20390;-76
2022/12/25 15:02:57;;;;;;;5.77;5.27;;;;;;;;;;6171870;23;21059;-76
2022/12/25 15:05:30;;;;;;;5.80;5.40;;;;;;;;;;6175308;23;20387;-75
2022/12/25 15:07:59;;;;;;;5.17;4.87;;;;;;;;;;6171632;23;20395;-75
2022/12/25 15:10:25;;;;;;;6.30;5.70;;;;;;;;;;6175116;23;20548;-77
2022/12/25 15:12:51;;;;;;;6.57;6.13;;;;;;;;;;6171117;23;20387;-76
2022/12/25 15:15:17;;;;;;;7.90;6.53;;;;;;;;;;6175642;23;20383;-77
2022/12/25 15:17:43;;;;;;;6.87;6.33;;;;;;;;;;6171902;23;20466;-75
2022/12/25 15:20:13;;;;;;;6.53;6.17;;;;;;;;;;6149806;23;20490;-76
2022/12/25 15:22:42;;;;;;;7.00;6.53;;;;;;;;;;6145947;23;20411;-79
2022/12/25 15:25:12;;;;;;;6.17;5.73;;;;;;;;;;6174755;23;20435;-79
2022/12/25 15:27:40;;;;;;;7.50;6.33;;;;;;;;;;6170035;23;20387;-77
2022/12/25 15:30:07;;;;;;;7.00;5.93;;;;;;;;;;6147833;23;20880;-77
2022/12/25 15:32:33;;;;;;;8.33;7.60;;;;;;;;;;6170375;23;20387;-76
2022/12/25 15:34:59;;;;;;;4.53;4.17;;;;;;;;;;6173291;23;20469;-76
2022/12/25 15:37:25;;;;;;;7.17;6.47;;;;;;;;;;6168567;23;20967;-75
2022/12/25 15:39:51;;;;;;;7.03;6.33;;;;;;;;;;6175020;23;20376;-77
2022/12/25 15:42:19;;;;;;;9.47;6.70;;;;;;;;;;6172028;23;20847;-77
2022/12/25 15:44:45;;;;;;;6.73;6.20;;;;;;;;;;6176931;23;20443;-77
2022/12/25 15:47:12;;;;;;;6.97;5.27;;;;;;;;;;6172587;23;20391;-76
2022/12/25 15:49:38;;;;;;;6.97;6.37;;;;;;;;;;6176174;23;20398;-76
2022/12/25 15:52:05;;;;;;;5.83;5.43;;;;;;;;;;6173100;23;20392;-77
2022/12/25 15:57:11;;;;;;;7.10;6.50;;;;;;;;;;6157357;23;20457;-82
2022/12/25 15:59:37;;;;;;;4.90;4.50;;;;;;;;;;6152595;23;20387;-85
2022/12/25 16:02:31;;;;;;;5.40;5.17;;;;;;;;;;6173300;23;20396;-83
2022/12/25 16:04:57;;;;;;;5.47;4.97;;;;;;;;;;6197143;23;20986;-87
2022/12/25 16:07:23;;;;;;;6.73;6.23;;;;;;;;;;6188966;23;20433;-87
2022/12/25 16:09:50;;;;;;;5.37;5.17;;;;;;;;;;6171480;23;20379;-86
2022/12/25 16:12:16;;;;;;;5.77;5.47;;;;;;;;;;6194653;23;20378;-88
2022/12/25 16:14:50;;;;;;;5.40;5.00;;;;;;;;;;6176854;23;20383;-86
2022/12/25 16:17:16;;;;;;;6.53;5.87;;;;;;;;;;6189054;23;20360;-85
2022/12/25 16:19:43;;;;;;;6.07;5.57;;;;;;;;;;6189554;23;20946;-86
2022/12/25 16:22:13;;;;;;;7.30;4.97;;;;;;;;;;6155229;23;20394;-85
2022/12/25 16:24:39;;;;;;;5.20;4.70;;;;;;;;;;6189909;23;20426;-85
2022/12/25 16:27:05;;;;;;;6.57;5.13;;;;;;;;;;6187588;23;20753;-84
2022/12/25 16:29:31;;;;;;;6.10;5.50;;;;;;;;;;6196068;23;20710;-85
2022/12/25 16:31:57;;;;;;;6.87;6.10;;;;;;;;;;6167865;23;20407;-85
2022/12/25 16:34:23;;;;;;;5.17;4.97;;;;;;;;;;6182743;23;20509;-84
2022/12/25 16:36:49;;;;;;;5.27;4.87;;;;;;;;;;6186110;23;20375;-86
2022/12/25 16:39:15;;;;;;;4.27;4.07;;;;;;;;;;6185186;23;20375;-84
2022/12/25 16:41:41;;;;;;;5.60;4.90;;;;;;;;;;6146076;23;20387;-81